createdAt,value
2024-05-09T00:01:37.556Z,65.99
2024-05-09T00:06:39.308Z,68.19
2024-05-09T00:11:41.096Z,69.12
2024-05-09T00:16:43.387Z,69.93
2024-05-09T00:21:45.129Z,70.58
2024-05-09T00:26:46.804Z,70.38
2024-05-09T00:31:48.642Z,70.82
2024-05-09T00:36:51.043Z,71.44
2024-05-09T00:41:52.772Z,74.00
2024-05-09T00:46:56.142Z,75.10
2024-05-09T00:51:57.969Z,76.54
2024-05-09T00:56:59.983Z,77.27
2024-05-09T01:02:01.827Z,80.60
2024-05-09T01:07:03.664Z,81.30
2024-05-09T01:12:05.779Z,82.06
2024-05-09T01:17:07.795Z,83.27
2024-05-09T01:22:09.935Z,84.43
2024-05-09T01:27:11.615Z,85.25
2024-05-09T01:32:13.524Z,85.82
2024-05-09T01:37:15.279Z,87.18
2024-05-09T01:42:17.294Z,87.53
2024-05-09T01:47:19.137Z,87.77
2024-05-09T01:52:20.838Z,87.69
2024-05-09T01:57:22.624Z,88.59
2024-05-09T02:02:25.468Z,88.94
2024-05-09T02:07:27.254Z,89.17
2024-05-09T02:12:29.124Z,88.44
2024-05-09T02:17:32.601Z,88.86
2024-05-09T02:22:34.582Z,90.15
2024-05-09T02:27:36.403Z,90.08
2024-05-09T02:32:38.336Z,89.70
2024-05-09T02:37:40.159Z,90.16
2024-05-09T02:42:41.873Z,91.48
2024-05-09T02:47:43.911Z,91.70
2024-05-09T02:52:45.951Z,91.43
2024-05-09T02:57:47.983Z,90.33
2024-05-09T03:02:49.846Z,90.11
2024-05-09T03:07:51.761Z,91.03
2024-05-09T03:12:53.497Z,91.98
2024-05-09T03:17:55.288Z,94.04
2024-05-09T03:22:57.263Z,92.21
2024-05-09T03:27:59.503Z,92.39
2024-05-09T03:33:01.356Z,91.37
2024-05-09T03:38:03.220Z,91.73
2024-05-09T03:43:05.004Z,91.97
2024-05-09T03:48:07.317Z,91.90
2024-05-09T03:53:13.154Z,91.93
2024-05-09T03:58:15.096Z,92.80
2024-05-09T04:03:17.035Z,92.64
2024-05-09T04:08:18.986Z,92.68
2024-05-09T04:13:20.782Z,93.42
2024-05-09T04:18:22.548Z,92.87
2024-05-09T04:23:24.422Z,92.54
2024-05-09T04:28:26.376Z,91.33
2024-05-09T04:33:28.287Z,89.76
2024-05-09T04:38:30.360Z,89.12
2024-05-09T04:43:33.319Z,88.25
2024-05-09T04:48:35.077Z,87.92
2024-05-09T04:53:37.102Z,86.73
2024-05-09T04:58:39.076Z,87.21
2024-05-09T05:03:40.998Z,86.49
2024-05-09T05:08:42.869Z,85.81
2024-05-09T05:13:44.727Z,84.05
2024-05-09T05:18:46.718Z,80.28
2024-05-09T05:23:48.591Z,75.76
2024-05-09T05:28:50.972Z,67.63
2024-05-09T05:33:52.816Z,63.62
2024-05-09T05:38:54.596Z,54.95
2024-05-09T05:43:56.336Z,53.16
2024-05-09T05:48:58.133Z,50.80
2024-05-09T05:53:59.841Z,53.13
2024-05-09T05:59:01.744Z,48.30
2024-05-09T06:04:03.544Z,44.93
2024-05-09T06:09:06.249Z,45.92
2024-05-09T06:14:08.955Z,45.73
2024-05-09T06:19:10.819Z,49.97
2024-05-09T06:24:12.997Z,51.09
2024-05-09T06:29:14.792Z,50.77
2024-05-09T06:34:18.851Z,47.92
2024-05-09T06:39:20.693Z,46.12
2024-05-09T06:44:22.821Z,47.63
2024-05-09T06:49:29.001Z,49.11
2024-05-09T06:54:31.192Z,46.05
2024-05-09T06:59:33.027Z,49.59
2024-05-09T07:04:35.102Z,51.04
2024-05-09T07:09:37.448Z,49.94
2024-05-09T07:14:39.253Z,51.83
2024-05-09T07:19:41.549Z,52.39
2024-05-09T07:24:43.297Z,51.79
2024-05-09T07:29:45.075Z,50.86
2024-05-09T07:34:46.793Z,51.37
2024-05-09T07:39:48.569Z,49.99
2024-05-09T07:44:50.353Z,50.59
2024-05-09T07:51:32.803Z,50.46
2024-05-09T07:55:13.889Z,51.54
2024-05-09T08:00:20.404Z,49.94
2024-05-09T08:05:28.742Z,52.54
2024-05-09T08:10:30.588Z,51.34
2024-05-09T08:15:32.687Z,50.50
2024-05-09T08:20:39.544Z,52.04
2024-05-09T08:25:41.142Z,48.47
2024-05-09T08:30:43.157Z,47.66
2024-05-09T08:35:45.037Z,45.53
2024-05-09T08:40:47.137Z,47.07
2024-05-09T08:45:49.671Z,46.34
2024-05-09T08:50:54.893Z,44.69
2024-05-09T08:56:01.274Z,43.93
2024-05-09T09:01:04.410Z,42.24
2024-05-09T09:06:12.328Z,43.00
2024-05-09T09:11:14.181Z,42.20
2024-05-09T09:16:17.150Z,40.58
2024-05-09T09:21:18.927Z,39.02
2024-05-09T09:26:20.622Z,38.58
2024-05-09T09:31:22.398Z,40.72
2024-05-09T09:36:28.192Z,42.07
2024-05-09T09:41:30.593Z,41.01
2024-05-09T09:46:32.514Z,41.75
2024-05-09T09:51:35.567Z,41.97
2024-05-09T09:56:39.356Z,43.13
2024-05-09T10:01:43.367Z,42.45
2024-05-09T10:06:57.985Z,42.73
2024-05-09T10:12:13.622Z,40.88
2024-05-09T10:17:16.888Z,40.88
2024-05-09T10:22:28.698Z,40.05
2024-05-09T10:27:31.157Z,40.77
2024-05-09T10:32:40.359Z,40.62
2024-05-09T10:37:42.117Z,40.92
2024-05-09T10:42:44.170Z,41.24
2024-05-09T10:47:46.049Z,41.81
2024-05-09T10:52:48.123Z,41.57
2024-05-09T10:57:50.204Z,40.57
2024-05-09T11:02:55.855Z,40.42
2024-05-09T11:07:57.661Z,41.03
2024-05-09T11:12:59.497Z,40.99
2024-05-09T11:18:01.341Z,41.93
2024-05-09T11:23:06.823Z,41.18
2024-05-09T11:28:08.479Z,43.21
2024-05-09T11:33:15.010Z,40.63
2024-05-09T11:38:16.741Z,40.52
2024-05-09T11:43:18.576Z,40.60
2024-05-09T11:48:20.399Z,41.84
2024-05-09T11:53:22.386Z,39.88
2024-05-09T11:58:24.127Z,41.11
2024-05-09T12:03:25.854Z,40.62
2024-05-09T12:08:27.642Z,41.76
2024-05-09T12:13:29.438Z,40.94
2024-05-09T12:18:31.578Z,41.58
2024-05-09T12:23:33.334Z,40.11
2024-05-09T12:28:34.994Z,40.35
2024-05-09T12:33:36.873Z,39.59
2024-05-09T12:38:38.625Z,40.82
2024-05-09T12:43:40.292Z,40.60
2024-05-09T12:48:42.123Z,39.84
2024-05-09T12:53:43.897Z,39.85
2024-05-09T12:58:45.651Z,40.91
2024-05-09T13:03:47.561Z,40.20
2024-05-09T13:08:49.405Z,40.07
2024-05-09T13:13:51.091Z,39.83
2024-05-09T13:18:52.862Z,39.71
2024-05-09T13:23:56.195Z,39.99
2024-05-09T13:28:58.566Z,40.66
2024-05-09T13:34:00.389Z,39.58
2024-05-09T13:39:02.359Z,40.06
2024-05-09T13:44:04.131Z,39.53
2024-05-09T13:49:07.134Z,40.39
2024-05-09T13:54:10.241Z,39.70
2024-05-09T13:59:11.992Z,38.64
2024-05-09T14:04:14.051Z,39.54
2024-05-09T14:09:16.175Z,39.41
2024-05-09T14:14:17.891Z,38.20
2024-05-09T14:19:19.697Z,39.50
2024-05-09T14:24:21.505Z,38.29
2024-05-09T14:29:23.174Z,38.01
2024-05-09T14:34:25.152Z,37.98
2024-05-09T14:39:27.013Z,38.33
2024-05-09T14:44:28.713Z,39.77
2024-05-09T14:49:31.228Z,38.06
2024-05-09T14:54:32.997Z,38.12
2024-05-09T14:59:34.740Z,38.51
2024-05-09T15:04:36.783Z,38.39
2024-05-09T15:09:38.932Z,38.58
2024-05-09T15:14:40.694Z,38.24
2024-05-09T15:19:45.147Z,38.37
2024-05-09T15:24:47.861Z,39.04
2024-05-09T15:29:49.574Z,39.91
2024-05-09T15:34:51.257Z,39.08
2024-05-09T15:39:53.179Z,39.18
2024-05-09T15:44:54.951Z,38.76
2024-05-09T15:49:56.791Z,38.91
2024-05-09T15:54:58.665Z,39.21
2024-05-09T16:00:00.592Z,39.21
2024-05-09T16:05:02.567Z,38.64
2024-05-09T16:10:06.837Z,38.23
2024-05-09T16:15:08.860Z,38.79
2024-05-09T16:20:15.145Z,39.36
2024-05-09T16:25:20.157Z,40.31
2024-05-09T16:30:28.282Z,39.51
2024-05-09T16:35:37.886Z,38.89
2024-05-09T16:40:41.249Z,39.39
2024-05-09T16:45:44.758Z,39.99
2024-05-09T16:50:46.753Z,40.35
2024-05-09T16:55:48.641Z,40.68
2024-05-09T17:00:50.734Z,41.08
2024-05-09T17:05:52.827Z,41.48
2024-05-09T17:10:55.510Z,41.94
2024-05-09T17:15:57.542Z,42.22
2024-05-09T17:20:59.355Z,42.06
2024-05-09T17:26:01.274Z,42.11
2024-05-09T17:31:03.070Z,42.00
2024-05-09T17:36:04.985Z,42.62
2024-05-09T17:41:06.678Z,42.96
2024-05-09T17:46:08.468Z,43.01
2024-05-09T17:51:10.216Z,43.34
2024-05-09T17:56:11.995Z,43.47
2024-05-09T18:01:13.975Z,43.93
2024-05-09T18:06:16.693Z,45.15
2024-05-09T18:11:18.477Z,45.43
2024-05-09T18:16:20.513Z,46.20
2024-05-09T18:21:22.361Z,47.23
2024-05-09T18:26:24.033Z,48.10
2024-05-09T18:31:25.894Z,48.95
2024-05-09T18:36:27.714Z,49.46
2024-05-09T18:41:29.391Z,50.11
2024-05-09T18:46:31.361Z,50.95
2024-05-09T18:51:33.269Z,51.99
2024-05-09T18:56:36.973Z,52.39
2024-05-09T19:01:41.985Z,52.86
2024-05-09T19:06:45.216Z,53.64
2024-05-09T19:11:47.062Z,54.15
2024-05-09T19:16:48.919Z,54.78
2024-05-09T19:21:50.687Z,55.52
2024-05-09T19:26:52.612Z,56.35
2024-05-09T19:31:54.794Z,56.56
2024-05-09T19:36:56.660Z,57.38
2024-05-09T19:41:58.455Z,58.14
2024-05-09T19:47:00.316Z,58.92
2024-05-09T19:52:02.050Z,60.07
2024-05-09T19:57:04.038Z,60.46
2024-05-09T20:02:05.869Z,61.72
2024-05-09T20:07:07.761Z,62.11
2024-05-09T20:12:09.782Z,62.13
2024-05-09T20:17:14.324Z,63.54
2024-05-09T20:22:16.251Z,64.30
2024-05-09T20:27:18.073Z,64.17
2024-05-09T20:32:19.953Z,64.39
2024-05-09T20:37:21.972Z,64.41
2024-05-09T20:42:23.924Z,65.05
2024-05-09T20:47:25.741Z,65.75
2024-05-09T20:52:27.586Z,66.11
2024-05-09T20:57:29.316Z,66.44
2024-05-09T21:02:31.162Z,67.09
2024-05-09T21:07:32.997Z,67.75
2024-05-09T21:12:34.868Z,69.02
2024-05-09T21:17:36.700Z,67.67
2024-05-09T21:22:38.485Z,69.15
2024-05-09T21:27:40.508Z,68.62
2024-05-09T21:32:42.487Z,71.15
2024-05-09T21:37:44.376Z,70.92
2024-05-09T21:42:46.056Z,71.35
2024-05-09T21:47:47.895Z,72.89
2024-05-09T21:52:49.664Z,71.83
2024-05-09T21:57:51.374Z,72.20
2024-05-09T22:02:53.119Z,72.87
2024-05-09T22:07:54.977Z,73.06
2024-05-09T22:12:56.643Z,74.17
2024-05-09T22:17:58.486Z,75.78
2024-05-09T22:23:00.225Z,76.29
2024-05-09T22:28:02.813Z,76.67
2024-05-09T22:33:05.939Z,77.83
2024-05-09T22:38:07.862Z,78.65
2024-05-09T22:43:09.772Z,79.43
2024-05-09T22:48:11.897Z,80.35
2024-05-09T22:53:13.746Z,81.36
2024-05-09T22:58:15.621Z,82.05
2024-05-09T23:03:18.723Z,84.44
2024-05-09T23:08:20.543Z,85.94
2024-05-09T23:13:22.517Z,86.06
2024-05-09T23:18:24.410Z,84.18
2024-05-09T23:23:26.098Z,84.14
2024-05-09T23:28:27.902Z,85.89
2024-05-09T23:33:29.899Z,85.87
2024-05-09T23:38:31.609Z,86.19
2024-05-09T23:43:33.606Z,87.03
2024-05-09T23:48:39.098Z,85.27
2024-05-09T23:53:47.199Z,84.49
2024-05-09T23:58:48.908Z,84.20
